sensor_id;sensor_type;location;lat;lon;timestamp;P1;durP1;ratioP1;P2;durP2;ratioP2
43014;SDS011;28637;50.554;7.032;2024-03-08T00:04:37;24.63;;;11.52;;
43014;SDS011;28637;50.554;7.032;2024-03-08T00:09:38;19.77;;;11.17;;
43014;SDS011;28637;50.554;7.032;2024-03-08T00:14:39;20.75;;;11.35;;
43014;SDS011;28637;50.554;7.032;2024-03-08T00:19:39;19.40;;;10.38;;
43014;SDS011;28637;50.554;7.032;2024-03-08T00:24:41;19.17;;;10.70;;
43014;SDS011;28637;50.554;7.032;2024-03-08T00:29:42;20.83;;;11.13;;
43014;SDS011;28637;50.554;7.032;2024-03-08T00:34:43;22.15;;;11.40;;
43014;SDS011;28637;50.554;7.032;2024-03-08T00:39:44;23.60;;;11.75;;
43014;SDS011;28637;50.554;7.032;2024-03-08T00:44:44;18.98;;;10.32;;
43014;SDS011;28637;50.554;7.032;2024-03-08T00:49:45;21.02;;;10.40;;
43014;SDS011;28637;50.554;7.032;2024-03-08T00:54:46;19.17;;;10.00;;
43014;SDS011;28637;50.554;7.032;2024-03-08T00:59:47;20.88;;;10.25;;
43014;SDS011;28637;50.554;7.032;2024-03-08T01:04:48;21.97;;;9.93;;
43014;SDS011;28637;50.554;7.032;2024-03-08T01:09:49;20.77;;;10.23;;
43014;SDS011;28637;50.554;7.032;2024-03-08T01:14:49;17.42;;;9.15;;
43014;SDS011;28637;50.554;7.032;2024-03-08T01:19:50;22.25;;;10.30;;
43014;SDS011;28637;50.554;7.032;2024-03-08T01:24:51;23.08;;;10.50;;
43014;SDS011;28637;50.554;7.032;2024-03-08T01:29:51;23.85;;;10.70;;
43014;SDS011;28637;50.554;7.032;2024-03-08T01:34:52;24.63;;;11.27;;
43014;SDS011;28637;50.554;7.032;2024-03-08T01:39:53;22.17;;;10.10;;
43014;SDS011;28637;50.554;7.032;2024-03-08T01:44:53;24.20;;;10.60;;
43014;SDS011;28637;50.554;7.032;2024-03-08T01:49:54;21.02;;;10.68;;
43014;SDS011;28637;50.554;7.032;2024-03-08T01:54:55;21.13;;;11.02;;
43014;SDS011;28637;50.554;7.032;2024-03-08T01:59:56;21.73;;;11.00;;
43014;SDS011;28637;50.554;7.032;2024-03-08T02:04:57;23.65;;;10.45;;
43014;SDS011;28637;50.554;7.032;2024-03-08T02:09:57;20.75;;;10.48;;
43014;SDS011;28637;50.554;7.032;2024-03-08T02:14:58;17.05;;;8.77;;
43014;SDS011;28637;50.554;7.032;2024-03-08T02:20:00;19.13;;;9.60;;
43014;SDS011;28637;50.554;7.032;2024-03-08T02:25:02;17.95;;;9.25;;
43014;SDS011;28637;50.554;7.032;2024-03-08T02:30:03;19.02;;;10.02;;
43014;SDS011;28637;50.554;7.032;2024-03-08T02:35:05;21.70;;;10.15;;
43014;SDS011;28637;50.554;7.032;2024-03-08T02:40:06;17.43;;;9.10;;
43014;SDS011;28637;50.554;7.032;2024-03-08T02:45:07;22.77;;;10.33;;
43014;SDS011;28637;50.554;7.032;2024-03-08T02:50:10;21.52;;;9.60;;
43014;SDS011;28637;50.554;7.032;2024-03-08T02:55:11;20.80;;;9.57;;
43014;SDS011;28637;50.554;7.032;2024-03-08T03:00:16;20.60;;;9.85;;
43014;SDS011;28637;50.554;7.032;2024-03-08T03:05:22;22.73;;;10.27;;
43014;SDS011;28637;50.554;7.032;2024-03-08T03:10:24;20.75;;;10.18;;
43014;SDS011;28637;50.554;7.032;2024-03-08T03:15:25;22.90;;;10.40;;
43014;SDS011;28637;50.554;7.032;2024-03-08T03:20:25;22.17;;;10.67;;
43014;SDS011;28637;50.554;7.032;2024-03-08T03:25:32;21.42;;;10.27;;
43014;SDS011;28637;50.554;7.032;2024-03-08T03:30:35;23.58;;;10.18;;
43014;SDS011;28637;50.554;7.032;2024-03-08T03:35:35;22.80;;;10.30;;
43014;SDS011;28637;50.554;7.032;2024-03-08T03:40:36;25.55;;;10.98;;
43014;SDS011;28637;50.554;7.032;2024-03-08T03:45:39;20.20;;;9.77;;
43014;SDS011;28637;50.554;7.032;2024-03-08T03:50:41;21.23;;;10.18;;
43014;SDS011;28637;50.554;7.032;2024-03-08T03:55:42;23.70;;;10.43;;
43014;SDS011;28637;50.554;7.032;2024-03-08T04:00:42;22.50;;;10.48;;
43014;SDS011;28637;50.554;7.032;2024-03-08T04:05:43;21.53;;;10.00;;
43014;SDS011;28637;50.554;7.032;2024-03-08T04:10:44;21.42;;;9.90;;
43014;SDS011;28637;50.554;7.032;2024-03-08T04:15:44;22.23;;;9.50;;
43014;SDS011;28637;50.554;7.032;2024-03-08T04:20:45;25.23;;;10.47;;
43014;SDS011;28637;50.554;7.032;2024-03-08T04:25:46;23.67;;;10.23;;
43014;SDS011;28637;50.554;7.032;2024-03-08T04:30:46;23.27;;;10.02;;
43014;SDS011;28637;50.554;7.032;2024-03-08T04:35:47;21.00;;;10.18;;
43014;SDS011;28637;50.554;7.032;2024-03-08T04:40:49;21.88;;;10.48;;
43014;SDS011;28637;50.554;7.032;2024-03-08T04:45:49;23.52;;;10.93;;
43014;SDS011;28637;50.554;7.032;2024-03-08T04:50:50;23.17;;;10.15;;
43014;SDS011;28637;50.554;7.032;2024-03-08T04:55:51;23.02;;;10.13;;
43014;SDS011;28637;50.554;7.032;2024-03-08T05:00:51;22.35;;;10.07;;
43014;SDS011;28637;50.554;7.032;2024-03-08T05:05:52;21.00;;;9.85;;
43014;SDS011;28637;50.554;7.032;2024-03-08T05:10:53;23.80;;;10.83;;
43014;SDS011;28637;50.554;7.032;2024-03-08T05:15:54;25.93;;;10.73;;
43014;SDS011;28637;50.554;7.032;2024-03-08T05:20:58;22.75;;;10.05;;
43014;SDS011;28637;50.554;7.032;2024-03-08T05:25:59;25.70;;;11.30;;
43014;SDS011;28637;50.554;7.032;2024-03-08T05:30:59;24.10;;;11.02;;
43014;SDS011;28637;50.554;7.032;2024-03-08T05:36:00;26.10;;;10.73;;
43014;SDS011;28637;50.554;7.032;2024-03-08T05:41:02;22.58;;;10.10;;
43014;SDS011;28637;50.554;7.032;2024-03-08T05:46:03;25.83;;;10.95;;
43014;SDS011;28637;50.554;7.032;2024-03-08T05:51:04;20.05;;;9.70;;
43014;SDS011;28637;50.554;7.032;2024-03-08T05:56:05;23.27;;;9.77;;
43014;SDS011;28637;50.554;7.032;2024-03-08T06:01:06;23.63;;;9.93;;
43014;SDS011;28637;50.554;7.032;2024-03-08T06:06:07;24.67;;;10.83;;
43014;SDS011;28637;50.554;7.032;2024-03-08T06:11:09;24.88;;;10.35;;
43014;SDS011;28637;50.554;7.032;2024-03-08T06:16:10;23.10;;;10.77;;
43014;SDS011;28637;50.554;7.032;2024-03-08T06:21:10;27.13;;;12.50;;
43014;SDS011;28637;50.554;7.032;2024-03-08T06:26:12;30.45;;;13.55;;
43014;SDS011;28637;50.554;7.032;2024-03-08T06:31:12;25.45;;;12.25;;
43014;SDS011;28637;50.554;7.032;2024-03-08T06:41:24;31.20;;;13.65;;
43014;SDS011;28637;50.554;7.032;2024-03-08T06:46:24;31.60;;;14.50;;
43014;SDS011;28637;50.554;7.032;2024-03-08T06:51:25;34.83;;;14.83;;
43014;SDS011;28637;50.554;7.032;2024-03-08T06:56:26;33.97;;;15.23;;
43014;SDS011;28637;50.554;7.032;2024-03-08T07:01:26;28.13;;;12.63;;
43014;SDS011;28637;50.554;7.032;2024-03-08T07:06:28;31.70;;;13.27;;
43014;SDS011;28637;50.554;7.032;2024-03-08T07:11:28;40.05;;;16.38;;
43014;SDS011;28637;50.554;7.032;2024-03-08T07:16:29;31.83;;;14.23;;
43014;SDS011;28637;50.554;7.032;2024-03-08T07:21:30;28.75;;;13.05;;
43014;SDS011;28637;50.554;7.032;2024-03-08T07:26:31;23.57;;;11.53;;
43014;SDS011;28637;50.554;7.032;2024-03-08T07:31:32;29.35;;;12.48;;
43014;SDS011;28637;50.554;7.032;2024-03-08T07:36:42;27.05;;;11.77;;
43014;SDS011;28637;50.554;7.032;2024-03-08T07:41:42;27.77;;;12.10;;
43014;SDS011;28637;50.554;7.032;2024-03-08T07:52:40;24.35;;;11.38;;
43014;SDS011;28637;50.554;7.032;2024-03-08T07:57:41;25.27;;;10.83;;
43014;SDS011;28637;50.554;7.032;2024-03-08T08:02:43;27.87;;;12.00;;
43014;SDS011;28637;50.554;7.032;2024-03-08T08:07:45;24.73;;;11.32;;
43014;SDS011;28637;50.554;7.032;2024-03-08T08:12:46;26.30;;;12.85;;
43014;SDS011;28637;50.554;7.032;2024-03-08T08:17:47;26.70;;;11.77;;
43014;SDS011;28637;50.554;7.032;2024-03-08T08:22:49;24.17;;;11.38;;
43014;SDS011;28637;50.554;7.032;2024-03-08T08:27:50;24.75;;;11.90;;
43014;SDS011;28637;50.554;7.032;2024-03-08T08:32:51;31.40;;;12.70;;
43014;SDS011;28637;50.554;7.032;2024-03-08T08:37:52;27.23;;;11.73;;
43014;SDS011;28637;50.554;7.032;2024-03-08T08:42:52;29.00;;;13.40;;
43014;SDS011;28637;50.554;7.032;2024-03-08T08:47:53;23.03;;;11.40;;
43014;SDS011;28637;50.554;7.032;2024-03-08T08:52:54;23.33;;;11.77;;
43014;SDS011;28637;50.554;7.032;2024-03-08T08:57:55;24.90;;;12.15;;
43014;SDS011;28637;50.554;7.032;2024-03-08T09:02:57;29.08;;;12.15;;
43014;SDS011;28637;50.554;7.032;2024-03-08T09:07:57;22.73;;;11.53;;
43014;SDS011;28637;50.554;7.032;2024-03-08T09:12:58;23.95;;;12.15;;
43014;SDS011;28637;50.554;7.032;2024-03-08T09:17:59;24.02;;;11.40;;
43014;SDS011;28637;50.554;7.032;2024-03-08T09:23:00;22.77;;;11.68;;
43014;SDS011;28637;50.554;7.032;2024-03-08T09:28:00;22.00;;;11.88;;
43014;SDS011;28637;50.554;7.032;2024-03-08T09:33:01;23.37;;;11.53;;
43014;SDS011;28637;50.554;7.032;2024-03-08T09:38:02;23.83;;;11.63;;
43014;SDS011;28637;50.554;7.032;2024-03-08T09:43:05;23.38;;;11.52;;
43014;SDS011;28637;50.554;7.032;2024-03-08T09:48:06;21.92;;;11.20;;
43014;SDS011;28637;50.554;7.032;2024-03-08T09:53:14;22.48;;;11.75;;
43014;SDS011;28637;50.554;7.032;2024-03-08T09:58:15;22.90;;;11.63;;
43014;SDS011;28637;50.554;7.032;2024-03-08T10:03:36;19.65;;;11.13;;
43014;SDS011;28637;50.554;7.032;2024-03-08T10:08:36;21.03;;;10.97;;
43014;SDS011;28637;50.554;7.032;2024-03-08T10:13:37;20.70;;;11.53;;
43014;SDS011;28637;50.554;7.032;2024-03-08T10:18:40;20.65;;;11.68;;
43014;SDS011;28637;50.554;7.032;2024-03-08T10:23:40;20.50;;;11.37;;
43014;SDS011;28637;50.554;7.032;2024-03-08T10:28:46;17.48;;;10.45;;
43014;SDS011;28637;50.554;7.032;2024-03-08T10:33:48;20.77;;;10.63;;
43014;SDS011;28637;50.554;7.032;2024-03-08T10:38:50;19.10;;;10.07;;
43014;SDS011;28637;50.554;7.032;2024-03-08T10:49:11;18.58;;;10.73;;
43014;SDS011;28637;50.554;7.032;2024-03-08T10:54:17;20.00;;;11.88;;
43014;SDS011;28637;50.554;7.032;2024-03-08T10:59:20;19.02;;;10.75;;
43014;SDS011;28637;50.554;7.032;2024-03-08T11:04:22;15.07;;;9.43;;
43014;SDS011;28637;50.554;7.032;2024-03-08T11:09:33;16.73;;;10.07;;
43014;SDS011;28637;50.554;7.032;2024-03-08T11:14:44;16.80;;;10.25;;
43014;SDS011;28637;50.554;7.032;2024-03-08T11:19:49;14.57;;;9.40;;
43014;SDS011;28637;50.554;7.032;2024-03-08T11:24:52;13.90;;;8.63;;
43014;SDS011;28637;50.554;7.032;2024-03-08T11:30:26;18.02;;;8.93;;
43014;SDS011;28637;50.554;7.032;2024-03-08T11:35:24;13.02;;;8.80;;
43014;SDS011;28637;50.554;7.032;2024-03-08T11:40:24;12.73;;;8.73;;
43014;SDS011;28637;50.554;7.032;2024-03-08T11:45:26;12.93;;;7.90;;
43014;SDS011;28637;50.554;7.032;2024-03-08T11:50:27;12.30;;;8.35;;
43014;SDS011;28637;50.554;7.032;2024-03-08T11:55:28;13.47;;;7.77;;
43014;SDS011;28637;50.554;7.032;2024-03-08T12:00:29;13.63;;;7.80;;
43014;SDS011;28637;50.554;7.032;2024-03-08T12:05:35;14.60;;;8.68;;
43014;SDS011;28637;50.554;7.032;2024-03-08T12:10:36;13.63;;;8.50;;
43014;SDS011;28637;50.554;7.032;2024-03-08T12:15:37;12.02;;;7.50;;
43014;SDS011;28637;50.554;7.032;2024-03-08T12:25:43;15.82;;;7.65;;
43014;SDS011;28637;50.554;7.032;2024-03-08T12:30:51;14.73;;;8.23;;
43014;SDS011;28637;50.554;7.032;2024-03-08T12:35:57;11.13;;;7.80;;
43014;SDS011;28637;50.554;7.032;2024-03-08T12:40:58;11.55;;;7.57;;
43014;SDS011;28637;50.554;7.032;2024-03-08T12:45:59;12.98;;;7.90;;
43014;SDS011;28637;50.554;7.032;2024-03-08T12:51:00;14.70;;;8.47;;
43014;SDS011;28637;50.554;7.032;2024-03-08T12:56:01;13.00;;;8.20;;
43014;SDS011;28637;50.554;7.032;2024-03-08T13:01:05;12.93;;;8.52;;
43014;SDS011;28637;50.554;7.032;2024-03-08T13:06:07;12.27;;;7.47;;
43014;SDS011;28637;50.554;7.032;2024-03-08T13:11:08;12.47;;;7.77;;
43014;SDS011;28637;50.554;7.032;2024-03-08T13:16:11;12.85;;;8.85;;
43014;SDS011;28637;50.554;7.032;2024-03-08T13:21:14;12.05;;;8.52;;
43014;SDS011;28637;50.554;7.032;2024-03-08T13:26:18;12.05;;;8.13;;
43014;SDS011;28637;50.554;7.032;2024-03-08T13:31:20;12.35;;;8.18;;
43014;SDS011;28637;50.554;7.032;2024-03-08T13:41:21;15.57;;;8.43;;
43014;SDS011;28637;50.554;7.032;2024-03-08T13:46:24;13.50;;;9.13;;
43014;SDS011;28637;50.554;7.032;2024-03-08T13:51:26;12.68;;;8.70;;
43014;SDS011;28637;50.554;7.032;2024-03-08T13:56:27;13.07;;;8.60;;
43014;SDS011;28637;50.554;7.032;2024-03-08T14:01:31;18.45;;;8.13;;
43014;SDS011;28637;50.554;7.032;2024-03-08T14:06:32;11.03;;;8.03;;
43014;SDS011;28637;50.554;7.032;2024-03-08T14:11:32;11.03;;;8.33;;
43014;SDS011;28637;50.554;7.032;2024-03-08T14:16:33;13.17;;;8.20;;
43014;SDS011;28637;50.554;7.032;2024-03-08T14:21:36;12.93;;;8.70;;
43014;SDS011;28637;50.554;7.032;2024-03-08T14:26:39;11.40;;;8.40;;
43014;SDS011;28637;50.554;7.032;2024-03-08T14:31:40;13.13;;;9.00;;
43014;SDS011;28637;50.554;7.032;2024-03-08T14:36:43;12.52;;;8.55;;
43014;SDS011;28637;50.554;7.032;2024-03-08T14:46:45;11.77;;;7.80;;
43014;SDS011;28637;50.554;7.032;2024-03-08T14:51:46;9.82;;;7.85;;
43014;SDS011;28637;50.554;7.032;2024-03-08T14:56:47;12.38;;;8.27;;
43014;SDS011;28637;50.554;7.032;2024-03-08T15:01:48;11.55;;;8.07;;
43014;SDS011;28637;50.554;7.032;2024-03-08T15:06:48;13.27;;;8.18;;
43014;SDS011;28637;50.554;7.032;2024-03-08T15:16:50;11.07;;;8.10;;
43014;SDS011;28637;50.554;7.032;2024-03-08T15:21:51;9.77;;;7.63;;
43014;SDS011;28637;50.554;7.032;2024-03-08T15:26:55;10.40;;;7.68;;
43014;SDS011;28637;50.554;7.032;2024-03-08T15:31:57;9.70;;;7.60;;
43014;SDS011;28637;50.554;7.032;2024-03-08T15:36:58;8.63;;;7.47;;
43014;SDS011;28637;50.554;7.032;2024-03-08T15:42:02;11.13;;;7.90;;
43014;SDS011;28637;50.554;7.032;2024-03-08T15:47:03;9.43;;;7.85;;
43014;SDS011;28637;50.554;7.032;2024-03-08T15:52:04;9.63;;;7.55;;
43014;SDS011;28637;50.554;7.032;2024-03-08T15:57:06;11.32;;;7.88;;
43014;SDS011;28637;50.554;7.032;2024-03-08T16:02:12;9.95;;;7.80;;
43014;SDS011;28637;50.554;7.032;2024-03-08T16:07:13;9.80;;;7.53;;
43014;SDS011;28637;50.554;7.032;2024-03-08T16:12:15;8.45;;;7.25;;
43014;SDS011;28637;50.554;7.032;2024-03-08T16:17:16;9.52;;;8.15;;
43014;SDS011;28637;50.554;7.032;2024-03-08T16:22:17;11.63;;;8.48;;
43014;SDS011;28637;50.554;7.032;2024-03-08T16:27:18;11.38;;;8.30;;
43014;SDS011;28637;50.554;7.032;2024-03-08T16:32:20;10.88;;;8.38;;
43014;SDS011;28637;50.554;7.032;2024-03-08T16:42:23;13.38;;;8.98;;
43014;SDS011;28637;50.554;7.032;2024-03-08T16:47:24;12.53;;;8.70;;
43014;SDS011;28637;50.554;7.032;2024-03-08T16:52:24;13.90;;;8.73;;
43014;SDS011;28637;50.554;7.032;2024-03-08T16:57:25;15.18;;;10.32;;
43014;SDS011;28637;50.554;7.032;2024-03-08T17:02:28;14.05;;;9.52;;
43014;SDS011;28637;50.554;7.032;2024-03-08T17:07:30;15.35;;;9.13;;
43014;SDS011;28637;50.554;7.032;2024-03-08T17:17:34;20.20;;;11.55;;
43014;SDS011;28637;50.554;7.032;2024-03-08T17:22:35;15.83;;;10.20;;
43014;SDS011;28637;50.554;7.032;2024-03-08T17:27:35;15.53;;;9.13;;
43014;SDS011;28637;50.554;7.032;2024-03-08T17:32:36;16.83;;;9.48;;
43014;SDS011;28637;50.554;7.032;2024-03-08T17:37:37;17.30;;;9.63;;
43014;SDS011;28637;50.554;7.032;2024-03-08T17:42:39;16.27;;;9.77;;
43014;SDS011;28637;50.554;7.032;2024-03-08T17:47:40;18.03;;;10.60;;
43014;SDS011;28637;50.554;7.032;2024-03-08T17:52:41;17.58;;;9.40;;
43014;SDS011;28637;50.554;7.032;2024-03-08T17:57:46;19.10;;;10.60;;
43014;SDS011;28637;50.554;7.032;2024-03-08T18:02:51;17.63;;;9.68;;
43014;SDS011;28637;50.554;7.032;2024-03-08T18:07:52;17.50;;;10.00;;
43014;SDS011;28637;50.554;7.032;2024-03-08T18:12:54;17.52;;;10.00;;
43014;SDS011;28637;50.554;7.032;2024-03-08T18:17:59;19.50;;;9.88;;
43014;SDS011;28637;50.554;7.032;2024-03-08T18:23:03;21.95;;;11.52;;
43014;SDS011;28637;50.554;7.032;2024-03-08T18:28:05;22.17;;;10.77;;
43014;SDS011;28637;50.554;7.032;2024-03-08T18:33:06;28.37;;;13.77;;
43014;SDS011;28637;50.554;7.032;2024-03-08T18:38:08;22.83;;;11.43;;
43014;SDS011;28637;50.554;7.032;2024-03-08T18:43:09;24.80;;;13.10;;
43014;SDS011;28637;50.554;7.032;2024-03-08T18:48:10;27.30;;;13.97;;
43014;SDS011;28637;50.554;7.032;2024-03-08T18:53:11;20.45;;;11.00;;
43014;SDS011;28637;50.554;7.032;2024-03-08T18:58:13;20.53;;;10.60;;
43014;SDS011;28637;50.554;7.032;2024-03-08T19:03:15;21.48;;;10.82;;
43014;SDS011;28637;50.554;7.032;2024-03-08T19:08:16;21.13;;;10.45;;
43014;SDS011;28637;50.554;7.032;2024-03-08T19:13:19;18.40;;;9.50;;
43014;SDS011;28637;50.554;7.032;2024-03-08T19:18:20;20.57;;;10.73;;
43014;SDS011;28637;50.554;7.032;2024-03-08T19:23:21;19.55;;;10.10;;
43014;SDS011;28637;50.554;7.032;2024-03-08T19:28:22;20.55;;;10.35;;
43014;SDS011;28637;50.554;7.032;2024-03-08T19:33:24;20.63;;;10.43;;
43014;SDS011;28637;50.554;7.032;2024-03-08T19:38:24;19.98;;;10.32;;
43014;SDS011;28637;50.554;7.032;2024-03-08T19:43:27;18.38;;;9.43;;
43014;SDS011;28637;50.554;7.032;2024-03-08T19:48:27;18.95;;;9.68;;
43014;SDS011;28637;50.554;7.032;2024-03-08T19:53:28;18.67;;;9.23;;
43014;SDS011;28637;50.554;7.032;2024-03-08T19:58:29;18.05;;;9.55;;
43014;SDS011;28637;50.554;7.032;2024-03-08T20:03:29;19.43;;;9.83;;
43014;SDS011;28637;50.554;7.032;2024-03-08T20:08:31;17.73;;;9.27;;
43014;SDS011;28637;50.554;7.032;2024-03-08T20:13:31;20.63;;;8.77;;
43014;SDS011;28637;50.554;7.032;2024-03-08T20:18:33;17.73;;;9.43;;
43014;SDS011;28637;50.554;7.032;2024-03-08T20:23:34;18.83;;;9.87;;
43014;SDS011;28637;50.554;7.032;2024-03-08T20:28:35;21.08;;;9.45;;
43014;SDS011;28637;50.554;7.032;2024-03-08T20:33:37;20.25;;;9.18;;
43014;SDS011;28637;50.554;7.032;2024-03-08T20:38:42;19.13;;;9.27;;
43014;SDS011;28637;50.554;7.032;2024-03-08T20:43:43;20.15;;;9.63;;
43014;SDS011;28637;50.554;7.032;2024-03-08T20:48:44;18.03;;;9.13;;
43014;SDS011;28637;50.554;7.032;2024-03-08T20:53:45;20.98;;;9.15;;
43014;SDS011;28637;50.554;7.032;2024-03-08T20:58:46;16.88;;;8.88;;
43014;SDS011;28637;50.554;7.032;2024-03-08T21:03:48;19.17;;;8.50;;
43014;SDS011;28637;50.554;7.032;2024-03-08T21:08:49;19.30;;;9.52;;
43014;SDS011;28637;50.554;7.032;2024-03-08T21:13:50;18.67;;;8.23;;
43014;SDS011;28637;50.554;7.032;2024-03-08T21:18:52;23.70;;;11.10;;
43014;SDS011;28637;50.554;7.032;2024-03-08T21:23:54;19.58;;;9.93;;
43014;SDS011;28637;50.554;7.032;2024-03-08T21:28:55;18.45;;;9.02;;
43014;SDS011;28637;50.554;7.032;2024-03-08T21:33:56;18.40;;;8.60;;
43014;SDS011;28637;50.554;7.032;2024-03-08T21:38:56;15.68;;;8.18;;
43014;SDS011;28637;50.554;7.032;2024-03-08T21:43:57;16.60;;;8.20;;
43014;SDS011;28637;50.554;7.032;2024-03-08T21:48:58;16.88;;;7.72;;
43014;SDS011;28637;50.554;7.032;2024-03-08T21:53:59;18.52;;;8.43;;
43014;SDS011;28637;50.554;7.032;2024-03-08T21:59:01;16.50;;;8.48;;
43014;SDS011;28637;50.554;7.032;2024-03-08T22:04:04;15.48;;;8.13;;
43014;SDS011;28637;50.554;7.032;2024-03-08T22:09:05;17.92;;;8.18;;
43014;SDS011;28637;50.554;7.032;2024-03-08T22:14:06;14.20;;;7.65;;
43014;SDS011;28637;50.554;7.032;2024-03-08T22:19:07;16.53;;;7.60;;
43014;SDS011;28637;50.554;7.032;2024-03-08T22:24:10;15.32;;;7.68;;
43014;SDS011;28637;50.554;7.032;2024-03-08T22:29:11;16.47;;;8.03;;
43014;SDS011;28637;50.554;7.032;2024-03-08T22:34:12;15.82;;;8.52;;
43014;SDS011;28637;50.554;7.032;2024-03-08T22:39:13;16.13;;;8.27;;
43014;SDS011;28637;50.554;7.032;2024-03-08T22:44:14;17.17;;;8.37;;
43014;SDS011;28637;50.554;7.032;2024-03-08T22:49:14;15.52;;;7.57;;
43014;SDS011;28637;50.554;7.032;2024-03-08T22:54:15;17.33;;;7.90;;
43014;SDS011;28637;50.554;7.032;2024-03-08T22:59:18;18.17;;;8.55;;
43014;SDS011;28637;50.554;7.032;2024-03-08T23:04:23;16.05;;;8.10;;
43014;SDS011;28637;50.554;7.032;2024-03-08T23:09:23;18.48;;;8.52;;
43014;SDS011;28637;50.554;7.032;2024-03-08T23:14:24;15.65;;;8.05;;
43014;SDS011;28637;50.554;7.032;2024-03-08T23:19:25;15.43;;;8.32;;
43014;SDS011;28637;50.554;7.032;2024-03-08T23:24:30;15.75;;;7.88;;
43014;SDS011;28637;50.554;7.032;2024-03-08T23:29:31;16.37;;;8.37;;
43014;SDS011;28637;50.554;7.032;2024-03-08T23:34:32;15.85;;;8.02;;
43014;SDS011;28637;50.554;7.032;2024-03-08T23:44:35;16.23;;;7.28;;
43014;SDS011;28637;50.554;7.032;2024-03-08T23:49:37;14.63;;;7.80;;
43014;SDS011;28637;50.554;7.032;2024-03-08T23:54:38;20.52;;;9.05;;
